createdAt,value
2022-10-24T00:00:11.169Z,7.50
2022-10-24T00:01:11.114Z,8.00
2022-10-24T00:02:11.121Z,8.20
2022-10-24T00:03:11.211Z,8.20
2022-10-24T00:04:11.094Z,7.80
2022-10-24T00:05:11.083Z,6.70
2022-10-24T00:06:11.057Z,7.50
2022-10-24T00:07:11.060Z,7.70
2022-10-24T00:08:12.062Z,6.30
2022-10-24T00:09:11.042Z,6.60
2022-10-24T00:10:11.028Z,6.20
2022-10-24T00:11:11.030Z,7.10
2022-10-24T00:12:11.051Z,7.40
2022-10-24T00:13:11.005Z,6.70
2022-10-24T00:14:10.986Z,6.80
2022-10-24T00:15:10.973Z,6.50
2022-10-24T00:16:10.969Z,7.40
2022-10-24T00:17:10.944Z,6.80
2022-10-24T00:18:10.962Z,7.20
2022-10-24T00:19:10.955Z,10.80
2022-10-24T00:20:10.925Z,14.90
2022-10-24T00:21:10.921Z,10.60
2022-10-24T00:22:10.906Z,10.70
2022-10-24T00:23:10.904Z,13.50
2022-10-24T00:24:10.898Z,14.80
2022-10-24T00:25:10.873Z,15.00
2022-10-24T00:26:10.866Z,12.10
2022-10-24T00:27:10.864Z,11.90
2022-10-24T00:28:10.846Z,12.20
2022-10-24T00:29:10.862Z,10.50
2022-10-24T00:30:10.821Z,17.80
2022-10-24T00:31:10.809Z,13.20
2022-10-24T00:32:10.814Z,13.30
2022-10-24T00:33:10.792Z,13.70
2022-10-24T00:34:10.782Z,13.00
2022-10-24T00:35:10.807Z,11.80
2022-10-24T00:36:10.763Z,13.90
2022-10-24T00:37:10.850Z,12.70
2022-10-24T00:38:10.746Z,12.90
2022-10-24T00:39:10.735Z,12.80
2022-10-24T00:40:10.761Z,19.40
2022-10-24T00:41:10.767Z,16.50
2022-10-24T00:42:10.705Z,15.30
2022-10-24T00:43:10.707Z,14.80
2022-10-24T00:44:10.682Z,18.30
2022-10-24T00:45:10.681Z,24.50
2022-10-24T00:46:10.693Z,24.40
2022-10-24T00:47:10.647Z,10.60
2022-10-24T00:48:10.656Z,14.30
2022-10-24T00:49:10.636Z,15.30
2022-10-24T00:50:10.626Z,13.90
2022-10-24T00:51:10.618Z,12.80
2022-10-24T00:52:10.616Z,12.20
2022-10-24T00:53:10.585Z,14.90
2022-10-24T00:54:10.579Z,14.80
2022-10-24T00:55:10.565Z,9.90
2022-10-24T00:56:10.563Z,8.70
2022-10-24T00:57:10.579Z,9.80
2022-10-24T00:58:10.530Z,8.00
2022-10-24T00:59:10.536Z,8.70
2022-10-24T01:00:10.543Z,8.60
2022-10-24T01:01:10.645Z,7.90
2022-10-24T01:02:11.536Z,8.00
2022-10-24T01:03:10.512Z,8.10
2022-10-24T01:04:10.485Z,7.80
2022-10-24T01:05:10.479Z,7.00
2022-10-24T01:06:10.443Z,6.30
2022-10-24T01:07:11.477Z,6.30
2022-10-24T01:08:10.507Z,6.00
2022-10-24T01:09:10.422Z,6.50
2022-10-24T01:10:10.418Z,6.10
2022-10-24T01:11:10.414Z,6.20
2022-10-24T01:12:10.415Z,6.60
2022-10-24T01:13:10.457Z,6.20
2022-10-24T01:14:10.392Z,6.00
2022-10-24T01:15:10.370Z,5.90
2022-10-24T01:16:10.362Z,5.80
2022-10-24T01:17:10.343Z,6.10
2022-10-24T01:18:10.345Z,6.60
2022-10-24T01:19:10.362Z,6.20
2022-10-24T01:20:10.318Z,5.80
2022-10-24T01:21:10.348Z,6.10
2022-10-24T01:22:10.303Z,5.60
2022-10-24T01:23:11.304Z,6.60
2022-10-24T01:24:10.280Z,5.70
2022-10-24T01:25:10.394Z,6.80
2022-10-24T01:26:10.501Z,6.70
2022-10-24T01:27:10.315Z,9.10
2022-10-24T01:28:10.821Z,10.50
2022-10-24T01:29:10.233Z,10.00
2022-10-24T01:30:10.247Z,11.00
2022-10-24T01:31:10.218Z,11.80
2022-10-24T01:32:10.227Z,22.40
2022-10-24T01:33:10.194Z,17.00
2022-10-24T01:34:10.192Z,8.70
2022-10-24T01:35:10.188Z,10.30
2022-10-24T01:36:10.187Z,11.30
2022-10-24T01:37:10.188Z,14.10
2022-10-24T01:38:10.150Z,11.50
2022-10-24T01:39:10.145Z,14.10
2022-10-24T01:40:10.136Z,10.90
2022-10-24T01:41:10.120Z,27.20
2022-10-24T01:42:10.140Z,11.80
2022-10-24T01:43:10.122Z,13.60
2022-10-24T01:44:10.101Z,13.90
2022-10-24T01:45:10.085Z,9.00
2022-10-24T01:46:10.067Z,8.70
2022-10-24T01:47:10.057Z,8.50
2022-10-24T01:48:10.077Z,18.90
2022-10-24T01:49:10.034Z,16.10
2022-10-24T01:50:10.025Z,18.50
2022-10-24T01:51:10.018Z,9.00
2022-10-24T01:52:10.085Z,19.30
2022-10-24T01:53:10.001Z,10.10
2022-10-24T01:54:10.014Z,9.90
2022-10-24T01:55:10.985Z,11.00
2022-10-24T01:56:09.968Z,20.30
2022-10-24T01:57:09.967Z,10.60
2022-10-24T01:58:09.950Z,15.60
2022-10-24T01:59:09.943Z,8.90
2022-10-24T02:00:10.011Z,9.60
2022-10-24T02:01:10.001Z,9.10
2022-10-24T02:02:09.931Z,15.00
2022-10-24T02:03:09.906Z,15.10
2022-10-24T02:04:09.883Z,13.80
2022-10-24T02:05:09.896Z,9.60
2022-10-24T02:06:09.866Z,9.30
2022-10-24T02:07:09.857Z,9.10
2022-10-24T02:08:09.842Z,9.90
2022-10-24T02:09:09.844Z,12.40
2022-10-24T02:10:09.854Z,11.20
2022-10-24T02:11:09.822Z,9.20
2022-10-24T02:12:09.833Z,11.50
2022-10-24T02:13:09.817Z,11.20
2022-10-24T02:14:09.790Z,9.10
2022-10-24T02:15:11.404Z,7.40
2022-10-24T02:16:09.786Z,7.70
2022-10-24T02:17:09.770Z,8.40
2022-10-24T02:18:09.788Z,8.40
2022-10-24T02:19:10.394Z,9.20
2022-10-24T02:20:10.759Z,7.20
2022-10-24T02:21:10.014Z,6.20
2022-10-24T02:22:09.719Z,9.30
2022-10-24T02:23:09.711Z,7.20
2022-10-24T02:24:09.698Z,6.90
2022-10-24T02:25:09.689Z,11.00
2022-10-24T02:26:09.703Z,7.70
2022-10-24T02:27:09.667Z,7.60
2022-10-24T02:28:09.690Z,7.50
2022-10-24T02:29:09.658Z,8.50
2022-10-24T02:30:09.629Z,9.10
2022-10-24T02:31:09.625Z,7.10
2022-10-24T02:32:09.629Z,14.40
2022-10-24T02:33:09.611Z,7.10
2022-10-24T02:34:09.628Z,6.90
2022-10-24T02:35:09.591Z,7.20
2022-10-24T02:36:09.584Z,6.40
2022-10-24T02:37:09.585Z,7.10
2022-10-24T02:38:09.584Z,6.90
2022-10-24T02:39:09.544Z,6.20
2022-10-24T02:40:09.542Z,6.20
2022-10-24T02:41:10.536Z,7.50
2022-10-24T02:42:09.517Z,7.50
2022-10-24T02:43:09.652Z,6.20
2022-10-24T02:44:09.761Z,6.40
2022-10-24T02:45:09.498Z,6.00
2022-10-24T02:46:09.493Z,7.20
2022-10-24T02:47:09.483Z,6.70
2022-10-24T02:48:09.473Z,6.50
2022-10-24T02:49:09.474Z,7.60
2022-10-24T02:50:09.454Z,10.00
2022-10-24T02:51:09.438Z,11.40
2022-10-24T02:52:09.434Z,10.30
2022-10-24T02:53:09.419Z,7.10
2022-10-24T02:54:41.317Z,6.40
2022-10-24T02:55:09.397Z,7.10
2022-10-24T02:56:09.393Z,8.20
2022-10-24T02:57:09.382Z,7.70
2022-10-24T02:58:09.371Z,7.40
2022-10-24T03:00:09.378Z,10.70
2022-10-24T03:01:09.453Z,6.70
2022-10-24T03:02:09.623Z,8.40
2022-10-24T03:03:10.912Z,6.70
2022-10-24T03:04:09.314Z,6.00
2022-10-24T03:05:09.312Z,7.30
2022-10-24T03:06:09.294Z,6.80
2022-10-24T03:07:09.288Z,6.30
2022-10-24T03:08:09.266Z,6.80
2022-10-24T03:09:09.273Z,8.70
2022-10-24T03:10:09.291Z,14.70
2022-10-24T03:11:09.267Z,6.60
2022-10-24T03:12:09.234Z,7.30
2022-10-24T03:13:09.227Z,7.00
2022-10-24T03:14:09.301Z,7.90
2022-10-24T03:15:09.236Z,6.90
2022-10-24T03:16:11.722Z,8.10
2022-10-24T03:17:09.183Z,10.00
2022-10-24T03:18:09.186Z,8.30
2022-10-24T03:19:09.170Z,10.90
2022-10-24T03:20:09.158Z,18.30
2022-10-24T03:21:09.188Z,9.30
2022-10-24T03:22:09.144Z,8.80
2022-10-24T03:23:09.133Z,9.70
2022-10-24T03:24:09.138Z,9.30
2022-10-24T03:25:09.118Z,7.90
2022-10-24T03:26:09.089Z,8.50
2022-10-24T03:27:09.118Z,8.30
2022-10-24T03:28:09.081Z,6.70
2022-10-24T03:29:09.086Z,7.10
2022-10-24T03:30:09.080Z,7.00
2022-10-24T03:31:09.059Z,7.20
2022-10-24T03:32:09.045Z,6.80
2022-10-24T03:33:09.039Z,8.40
2022-10-24T03:34:09.039Z,8.80
2022-10-24T03:35:11.727Z,6.90
2022-10-24T03:36:11.023Z,6.40
2022-10-24T03:37:08.994Z,6.10
2022-10-24T03:38:08.994Z,7.20
2022-10-24T03:39:08.969Z,7.30
2022-10-24T03:40:08.959Z,7.00
2022-10-24T03:41:08.979Z,6.60
2022-10-24T03:42:08.942Z,5.90
2022-10-24T03:43:08.947Z,6.90
2022-10-24T03:44:08.930Z,6.20
2022-10-24T03:45:08.915Z,9.80
2022-10-24T03:46:08.915Z,6.10
2022-10-24T03:47:08.905Z,6.70
2022-10-24T03:48:08.884Z,7.10
2022-10-24T03:49:08.911Z,6.40
2022-10-24T03:50:08.871Z,6.20
2022-10-24T03:51:08.868Z,6.00
2022-10-24T03:52:08.867Z,10.20
2022-10-24T03:53:08.865Z,7.00
2022-10-24T03:54:08.849Z,6.40
2022-10-24T03:55:08.828Z,6.80
2022-10-24T03:56:08.807Z,6.80
2022-10-24T03:57:08.834Z,5.70
2022-10-24T03:58:08.810Z,5.80
2022-10-24T03:59:08.781Z,7.30
2022-10-24T04:00:08.823Z,6.50
2022-10-24T04:01:08.865Z,7.80
2022-10-24T04:02:08.757Z,28.60
2022-10-24T04:03:08.749Z,21.60
2022-10-24T04:04:08.731Z,8.30
2022-10-24T04:05:08.742Z,6.60
2022-10-24T04:06:08.714Z,6.90
2022-10-24T04:07:08.714Z,10.40
2022-10-24T04:08:08.709Z,6.90
2022-10-24T04:09:08.677Z,8.30
2022-10-24T04:10:08.701Z,7.90
2022-10-24T04:11:08.695Z,6.70
2022-10-24T04:12:08.664Z,12.40
2022-10-24T04:13:08.636Z,6.80
2022-10-24T04:14:08.652Z,8.50
2022-10-24T04:15:08.647Z,8.50
2022-10-24T04:16:08.645Z,14.20
2022-10-24T04:17:08.611Z,8.60
2022-10-24T04:18:08.595Z,9.00
2022-10-24T04:19:08.597Z,8.90
2022-10-24T04:20:08.582Z,7.60
2022-10-24T04:21:08.583Z,8.00
2022-10-24T04:22:08.597Z,7.20
2022-10-24T04:23:08.555Z,8.00
2022-10-24T04:24:08.548Z,7.60
2022-10-24T04:25:08.533Z,10.60
2022-10-24T04:26:08.549Z,7.70
2022-10-24T04:27:08.512Z,10.30
2022-10-24T04:28:08.506Z,11.80
2022-10-24T04:29:08.497Z,9.00
2022-10-24T04:30:11.551Z,28.80
2022-10-24T04:31:08.463Z,7.80
2022-10-24T04:32:08.472Z,13.40
2022-10-24T04:33:08.453Z,9.60
2022-10-24T04:34:08.451Z,10.90
2022-10-24T04:35:08.460Z,9.60
2022-10-24T04:36:08.421Z,9.80
2022-10-24T04:37:09.441Z,7.70
2022-10-24T04:38:08.417Z,6.90
2022-10-24T04:39:08.413Z,7.80
2022-10-24T04:40:08.397Z,7.80
2022-10-24T04:41:11.230Z,9.00
2022-10-24T04:42:08.396Z,10.80
2022-10-24T04:43:08.362Z,23.60
2022-10-24T04:44:08.349Z,15.70
2022-10-24T04:45:08.337Z,15.80
2022-10-24T04:46:08.330Z,15.20
2022-10-24T04:47:09.366Z,12.70
2022-10-24T04:48:08.346Z,20.30
2022-10-24T04:49:08.295Z,20.60
2022-10-24T04:50:08.317Z,10.00
2022-10-24T04:51:08.276Z,8.50
2022-10-24T04:52:08.269Z,9.00
2022-10-24T04:53:08.279Z,8.60
2022-10-24T04:54:08.251Z,6.50
2022-10-24T04:55:08.257Z,9.20
2022-10-24T04:56:08.224Z,7.70
2022-10-24T04:57:08.226Z,7.90
2022-10-24T04:58:08.242Z,6.60
2022-10-24T04:59:08.197Z,8.00
2022-10-24T05:00:08.190Z,7.70
2022-10-24T05:01:08.212Z,8.40
2022-10-24T05:02:08.236Z,7.00
2022-10-24T05:03:08.166Z,7.80
2022-10-24T05:04:08.149Z,11.00
2022-10-24T05:05:08.138Z,13.80
2022-10-24T05:06:08.150Z,8.10
2022-10-24T05:07:08.134Z,8.80
2022-10-24T05:08:08.132Z,7.90
2022-10-24T05:09:08.109Z,6.80
2022-10-24T05:10:08.092Z,6.20
2022-10-24T05:11:08.078Z,7.80
2022-10-24T05:12:08.107Z,6.70
2022-10-24T05:13:08.082Z,5.90
2022-10-24T05:14:08.066Z,6.30
2022-10-24T05:15:08.037Z,6.00
2022-10-24T05:16:08.031Z,9.60
2022-10-24T05:17:08.039Z,30.10
2022-10-24T05:18:08.016Z,42.70
2022-10-24T05:19:08.005Z,28.70
2022-10-24T05:20:07.999Z,8.00
2022-10-24T05:21:07.973Z,7.90
2022-10-24T05:22:10.741Z,7.40
2022-10-24T05:23:07.963Z,6.90
2022-10-24T05:24:07.940Z,6.00
2022-10-24T05:25:07.956Z,5.70
2022-10-24T05:26:07.929Z,4.80
2022-10-24T05:27:07.932Z,6.00
2022-10-24T05:28:07.934Z,5.50
2022-10-24T05:30:08.881Z,5.00
2022-10-24T05:31:07.876Z,6.10
2022-10-24T05:32:07.875Z,20.90
2022-10-24T05:33:07.898Z,7.80
2022-10-24T05:34:07.861Z,7.50
2022-10-24T05:35:07.856Z,6.60
2022-10-24T05:36:07.839Z,6.90
2022-10-24T05:37:07.825Z,6.50
2022-10-24T05:38:07.846Z,6.70
2022-10-24T05:39:07.817Z,7.40
2022-10-24T05:40:07.805Z,6.10
2022-10-24T05:41:07.802Z,7.40
2022-10-24T05:42:07.781Z,6.30
2022-10-24T05:43:07.803Z,6.90
2022-10-24T05:44:07.774Z,6.80
2022-10-24T05:45:07.758Z,6.70
2022-10-24T05:46:07.748Z,7.10
2022-10-24T05:47:07.739Z,6.70
2022-10-24T05:48:07.743Z,6.10
2022-10-24T05:49:07.719Z,6.70
2022-10-24T05:50:07.712Z,6.30
2022-10-24T05:51:07.711Z,6.20
2022-10-24T05:52:07.689Z,6.40
2022-10-24T05:53:07.720Z,6.80
2022-10-24T05:54:07.701Z,6.20
2022-10-24T05:55:08.442Z,6.20
2022-10-24T05:56:08.658Z,5.20
2022-10-24T05:57:07.678Z,6.80
2022-10-24T05:58:07.625Z,6.10
2022-10-24T05:59:07.641Z,5.90
2022-10-24T06:00:07.609Z,6.50
2022-10-24T06:01:07.954Z,6.50
2022-10-24T06:02:07.665Z,5.70
2022-10-24T06:03:07.690Z,6.40
2022-10-24T06:04:10.044Z,6.50
2022-10-24T06:05:08.795Z,6.30
2022-10-24T06:06:08.055Z,6.00
2022-10-24T06:07:07.561Z,6.60
2022-10-24T06:08:07.565Z,5.80
2022-10-24T06:09:07.525Z,6.40
2022-10-24T06:10:07.538Z,6.50
2022-10-24T06:11:07.550Z,5.60
2022-10-24T06:12:07.497Z,5.50
2022-10-24T06:13:07.495Z,5.80
2022-10-24T06:14:07.492Z,5.20
2022-10-24T06:15:07.478Z,5.50
2022-10-24T06:16:07.483Z,7.70
2022-10-24T06:17:07.454Z,8.10
2022-10-24T06:18:07.448Z,18.70
2022-10-24T06:19:07.448Z,7.90
2022-10-24T06:20:07.432Z,9.50
2022-10-24T06:21:07.409Z,6.30
2022-10-24T06:22:07.436Z,8.10
2022-10-24T06:23:07.415Z,7.10
2022-10-24T06:24:07.394Z,6.20
2022-10-24T06:25:07.377Z,7.90
2022-10-24T06:26:07.406Z,6.80
2022-10-24T06:27:07.362Z,6.90
2022-10-24T06:29:07.319Z,6.40
2022-10-24T06:30:07.334Z,7.00
2022-10-24T06:31:07.343Z,6.60
2022-10-24T06:32:07.306Z,7.20
2022-10-24T06:33:07.288Z,7.40
2022-10-24T06:34:07.287Z,8.00
2022-10-24T06:35:07.273Z,7.60
2022-10-24T06:36:07.267Z,6.70
2022-10-24T06:37:07.275Z,6.00
2022-10-24T06:38:07.245Z,5.90
2022-10-24T06:39:07.243Z,6.10
2022-10-24T06:40:07.225Z,6.00
2022-10-24T06:41:07.242Z,6.10
2022-10-24T06:42:07.212Z,5.30
2022-10-24T06:43:07.227Z,6.10
2022-10-24T06:44:10.867Z,5.40
2022-10-24T06:45:08.193Z,5.90
2022-10-24T06:46:07.182Z,6.50
2022-10-24T06:47:07.170Z,6.40
2022-10-24T06:48:07.268Z,5.80
2022-10-24T06:49:07.163Z,6.30
2022-10-24T06:50:08.133Z,6.40
2022-10-24T06:51:07.118Z,5.30
2022-10-24T06:52:07.114Z,6.60
2022-10-24T06:53:07.129Z,5.40
2022-10-24T06:54:07.122Z,5.50
2022-10-24T06:55:07.082Z,5.10
2022-10-24T06:56:07.072Z,5.60
2022-10-24T06:57:07.054Z,5.00
2022-10-24T06:58:07.086Z,5.00
2022-10-24T06:59:07.046Z,6.00
2022-10-24T07:00:08.039Z,5.60
2022-10-24T07:01:07.130Z,5.10
2022-10-24T07:02:07.066Z,5.30
2022-10-24T07:03:07.091Z,5.50
2022-10-24T07:04:07.011Z,6.00
2022-10-24T07:05:06.990Z,5.50
2022-10-24T07:06:06.981Z,5.50
2022-10-24T07:07:06.960Z,5.20
2022-10-24T07:08:06.961Z,5.90
2022-10-24T07:09:10.235Z,5.60
2022-10-24T07:10:06.935Z,5.30
2022-10-24T07:11:06.915Z,5.20
2022-10-24T07:12:06.957Z,4.90
2022-10-24T07:13:06.896Z,5.30
2022-10-24T07:14:09.097Z,5.00
2022-10-24T07:15:07.898Z,5.40
2022-10-24T07:16:06.867Z,4.90
2022-10-24T07:17:06.892Z,6.10
2022-10-24T07:18:06.857Z,5.60
2022-10-24T07:19:06.854Z,5.30
2022-10-24T07:20:06.827Z,5.60
2022-10-24T07:21:06.818Z,6.40
2022-10-24T07:22:06.836Z,5.80
2022-10-24T07:23:06.797Z,5.40
2022-10-24T07:24:06.789Z,5.60
2022-10-24T07:25:06.785Z,6.20
2022-10-24T07:26:06.767Z,6.30
2022-10-24T07:27:06.750Z,6.30
2022-10-24T07:28:06.770Z,6.60
2022-10-24T07:29:06.736Z,6.50
2022-10-24T07:30:06.727Z,7.80
2022-10-24T07:31:06.725Z,7.00
2022-10-24T07:32:06.712Z,5.70
2022-10-24T07:33:06.722Z,5.60
2022-10-24T07:34:06.707Z,6.20
2022-10-24T07:35:06.693Z,6.70
2022-10-24T07:36:06.673Z,6.20
2022-10-24T07:37:06.935Z,5.70
2022-10-24T07:38:06.663Z,5.90
2022-10-24T07:39:06.739Z,6.40
2022-10-24T07:40:06.627Z,6.90
2022-10-24T07:41:06.615Z,6.20
2022-10-24T07:42:06.623Z,6.40
2022-10-24T07:43:06.618Z,6.90
2022-10-24T07:44:06.608Z,7.70
2022-10-24T07:45:06.602Z,7.50
2022-10-24T07:46:06.569Z,6.70
2022-10-24T07:47:06.559Z,6.70
2022-10-24T07:48:06.548Z,5.90
2022-10-24T07:49:06.541Z,6.30
2022-10-24T07:50:06.541Z,6.50
2022-10-24T07:51:06.549Z,6.30
2022-10-24T07:52:06.519Z,6.00
2022-10-24T07:53:06.500Z,6.10
2022-10-24T07:54:06.500Z,5.80
2022-10-24T07:55:06.475Z,5.60
2022-10-24T07:56:06.474Z,6.80
2022-10-24T07:57:06.498Z,6.10
2022-10-24T07:58:06.446Z,5.50
2022-10-24T07:59:09.591Z,6.20
2022-10-24T08:00:07.433Z,5.30
2022-10-24T08:01:06.466Z,5.10
2022-10-24T08:02:06.428Z,4.80
2022-10-24T08:03:06.433Z,5.80
2022-10-24T08:04:06.389Z,4.80
2022-10-24T08:05:06.388Z,4.30
2022-10-24T08:06:06.377Z,4.80
2022-10-24T08:07:06.364Z,4.20
2022-10-24T08:09:08.360Z,4.70
2022-10-24T08:10:06.334Z,4.80
2022-10-24T08:11:06.322Z,4.30
2022-10-24T08:12:06.329Z,3.70
2022-10-24T08:13:09.253Z,4.20
2022-10-24T08:14:07.320Z,4.30
2022-10-24T08:15:06.279Z,4.70
2022-10-24T08:16:06.275Z,4.00
2022-10-24T08:17:06.256Z,3.80
2022-10-24T08:18:06.249Z,3.50
2022-10-24T08:19:06.259Z,3.40
2022-10-24T08:20:06.286Z,3.60
2022-10-24T08:21:06.226Z,3.50
2022-10-24T08:22:06.220Z,4.00
2022-10-24T08:23:06.221Z,3.60
2022-10-24T08:24:06.207Z,3.70
2022-10-24T08:25:06.185Z,3.50
2022-10-24T08:26:06.187Z,3.70
2022-10-24T08:27:06.166Z,3.40
2022-10-24T08:28:08.264Z,3.80
2022-10-24T08:29:06.163Z,3.30
2022-10-24T08:30:06.134Z,3.50
2022-10-24T08:31:06.188Z,3.60
2022-10-24T08:32:06.099Z,3.50
2022-10-24T08:33:06.101Z,3.80
2022-10-24T08:34:06.096Z,4.10
2022-10-24T08:35:06.067Z,4.10
2022-10-24T08:36:06.091Z,4.00
2022-10-24T08:37:06.059Z,3.80
2022-10-24T08:38:06.051Z,3.90
2022-10-24T08:39:06.052Z,3.80
2022-10-24T08:40:06.037Z,3.20
2022-10-24T08:41:06.062Z,3.50
2022-10-24T08:42:06.014Z,3.10
2022-10-24T08:43:05.997Z,3.30
2022-10-24T08:44:05.991Z,3.90
2022-10-24T08:45:05.985Z,3.40
2022-10-24T08:46:05.994Z,4.10
2022-10-24T08:47:05.963Z,3.60
2022-10-24T08:48:06.516Z,3.70
2022-10-24T08:49:05.953Z,3.10
2022-10-24T08:50:05.933Z,2.80
2022-10-24T08:51:05.952Z,3.30
2022-10-24T08:52:05.920Z,3.40
2022-10-24T08:53:05.902Z,3.90
2022-10-24T08:55:48.626Z,4.00
2022-10-24T08:56:05.893Z,3.90
2022-10-24T08:57:05.872Z,3.20
2022-10-24T08:58:05.891Z,3.80
2022-10-24T08:59:05.846Z,3.50
2022-10-24T09:00:05.844Z,3.80
2022-10-24T09:01:05.885Z,3.30
2022-10-24T09:02:07.793Z,3.20
2022-10-24T09:03:05.858Z,3.60
2022-10-24T09:04:05.787Z,3.70
2022-10-24T09:05:05.791Z,3.50
2022-10-24T09:06:05.774Z,3.40
2022-10-24T09:07:05.758Z,3.10
2022-10-24T09:08:05.780Z,3.10
2022-10-24T09:09:05.734Z,3.30
2022-10-24T09:10:05.738Z,4.00
2022-10-24T09:11:05.739Z,2.70
2022-10-24T09:12:05.712Z,3.20
2022-10-24T09:13:05.694Z,3.10
2022-10-24T09:14:05.724Z,3.60
2022-10-24T09:15:05.690Z,2.90
2022-10-24T09:16:05.670Z,3.20
2022-10-24T09:17:05.707Z,3.50
2022-10-24T09:18:05.667Z,3.10
2022-10-24T09:19:05.638Z,3.20
2022-10-24T09:20:05.626Z,3.60
2022-10-24T09:21:05.642Z,3.90
2022-10-24T09:22:05.623Z,3.20
2022-10-24T09:23:05.607Z,3.10
2022-10-24T09:24:05.585Z,3.30
2022-10-24T09:25:05.599Z,3.40
2022-10-24T09:26:05.579Z,3.50
2022-10-24T09:27:05.563Z,5.10
2022-10-24T09:28:05.548Z,4.70
2022-10-24T09:29:05.565Z,6.20
2022-10-24T09:30:05.535Z,3.60
2022-10-24T09:31:05.520Z,3.30
2022-10-24T09:32:05.513Z,3.10
2022-10-24T09:33:05.507Z,3.20
2022-10-24T09:34:05.515Z,3.50
2022-10-24T09:35:05.500Z,3.20
2022-10-24T09:36:05.479Z,3.90
2022-10-24T09:37:05.479Z,4.00
2022-10-24T09:38:05.462Z,3.50
2022-10-24T09:39:05.462Z,3.20
2022-10-24T09:40:05.422Z,4.10
2022-10-24T09:41:05.441Z,3.90
2022-10-24T09:42:05.416Z,3.30
2022-10-24T09:43:05.401Z,3.50
2022-10-24T09:44:05.401Z,3.30
2022-10-24T09:45:05.414Z,3.80
2022-10-24T09:46:05.395Z,3.80
2022-10-24T09:47:05.383Z,4.50
2022-10-24T09:48:05.411Z,4.00
2022-10-24T09:49:05.352Z,4.90
2022-10-24T09:50:05.358Z,4.80
2022-10-24T09:51:05.319Z,21.90
2022-10-24T09:52:05.312Z,23.80
2022-10-24T09:53:05.324Z,19.10
2022-10-24T09:54:05.289Z,17.40
2022-10-24T09:55:05.281Z,9.00
2022-10-24T09:56:05.269Z,12.30
2022-10-24T09:57:05.286Z,17.70
2022-10-24T09:58:05.297Z,13.30
2022-10-24T09:59:05.243Z,11.80
2022-10-24T10:00:05.245Z,8.10
2022-10-24T10:01:05.359Z,10.80
2022-10-24T10:02:05.281Z,13.70
2022-10-24T10:03:05.230Z,18.90
2022-10-24T10:04:09.354Z,14.40
2022-10-24T10:05:06.183Z,10.30
2022-10-24T10:06:05.158Z,8.50
2022-10-24T10:08:06.182Z,7.80
2022-10-24T10:09:05.141Z,22.80
2022-10-24T10:10:05.137Z,24.30
2022-10-24T10:11:05.144Z,36.30
2022-10-24T10:12:05.105Z,20.50
2022-10-24T10:13:05.114Z,31.90
2022-10-24T10:14:05.108Z,16.80
2022-10-24T10:15:05.095Z,11.90
2022-10-24T10:16:05.071Z,14.10
2022-10-24T10:17:05.060Z,15.90
2022-10-24T10:18:05.065Z,15.30
2022-10-24T10:19:05.060Z,20.00
2022-10-24T10:20:05.035Z,26.40
2022-10-24T10:21:05.027Z,30.00
2022-10-24T10:22:05.018Z,28.60
2022-10-24T10:23:05.010Z,19.40
2022-10-24T10:24:05.011Z,6.00
2022-10-24T10:25:05.052Z,15.50
2022-10-24T10:26:04.977Z,8.70
2022-10-24T10:27:04.967Z,13.00
2022-10-24T10:28:05.954Z,7.10
2022-10-24T10:29:04.953Z,14.10
2022-10-24T10:30:04.938Z,12.60
2022-10-24T10:31:04.948Z,6.40
2022-10-24T10:32:04.913Z,7.70
2022-10-24T10:33:04.897Z,5.50
2022-10-24T10:34:04.911Z,4.80
2022-10-24T10:35:04.886Z,5.20
2022-10-24T10:36:04.890Z,6.60
2022-10-24T10:37:04.863Z,4.80
2022-10-24T10:38:04.875Z,5.00
2022-10-24T10:39:04.846Z,5.60
2022-10-24T10:40:04.877Z,5.20
2022-10-24T10:41:04.832Z,5.00
2022-10-24T10:42:04.847Z,5.60
2022-10-24T10:43:04.815Z,4.00
2022-10-24T10:44:05.814Z,4.80
2022-10-24T10:45:04.794Z,4.80
2022-10-24T10:46:05.786Z,5.80
2022-10-24T10:47:04.789Z,6.80
2022-10-24T10:48:04.778Z,5.40
2022-10-24T10:49:04.741Z,3.80
2022-10-24T10:50:04.784Z,3.50
2022-10-24T10:51:07.415Z,3.70
2022-10-24T10:52:04.724Z,3.30
2022-10-24T10:53:04.738Z,3.20
2022-10-24T10:54:04.699Z,3.10
2022-10-24T10:55:04.692Z,3.80
2022-10-24T10:56:04.679Z,3.30
2022-10-24T10:57:04.663Z,3.00
2022-10-24T10:58:04.751Z,3.00
2022-10-24T10:59:04.643Z,3.90
2022-10-24T11:00:04.659Z,2.70
2022-10-24T11:01:04.711Z,3.40
2022-10-24T11:02:04.747Z,2.20
2022-10-24T11:03:04.594Z,3.30
2022-10-24T11:04:04.653Z,3.40
2022-10-24T11:05:04.588Z,3.10
2022-10-24T11:06:04.598Z,3.20
2022-10-24T11:07:04.573Z,2.80
2022-10-24T11:08:04.571Z,3.60
2022-10-24T11:09:04.575Z,3.10
2022-10-24T11:10:04.545Z,2.90
2022-10-24T11:11:04.537Z,3.10
2022-10-24T11:12:04.531Z,2.50
2022-10-24T11:13:04.510Z,2.70
2022-10-24T11:14:04.539Z,3.60
2022-10-24T11:15:04.509Z,2.90
2022-10-24T11:16:04.490Z,2.80
2022-10-24T11:17:04.480Z,2.80
2022-10-24T11:18:04.523Z,2.90
2022-10-24T11:19:04.528Z,3.00
2022-10-24T11:20:04.585Z,2.90
2022-10-24T11:21:04.424Z,2.40
2022-10-24T11:22:04.434Z,2.70
2022-10-24T11:23:04.425Z,3.60
2022-10-24T11:24:04.408Z,2.70
2022-10-24T11:25:04.411Z,2.40
2022-10-24T11:26:04.463Z,2.70
2022-10-24T11:27:04.422Z,2.80
2022-10-24T11:28:04.356Z,2.60
2022-10-24T11:29:04.352Z,2.90
2022-10-24T11:30:04.348Z,3.00
2022-10-24T11:31:04.339Z,2.70
2022-10-24T11:33:05.315Z,2.60
2022-10-24T11:34:04.351Z,2.90
2022-10-24T11:35:04.300Z,3.00
2022-10-24T11:36:04.290Z,3.00
2022-10-24T11:37:04.277Z,3.20
2022-10-24T11:38:04.288Z,4.10
2022-10-24T11:39:04.290Z,3.10
2022-10-24T11:40:04.261Z,6.70
2022-10-24T11:41:04.271Z,4.80
2022-10-24T11:42:04.226Z,3.10
2022-10-24T11:43:04.225Z,3.20
2022-10-24T11:44:04.227Z,3.10
2022-10-24T11:45:04.208Z,3.20
2022-10-24T11:46:04.208Z,2.70
2022-10-24T11:47:06.471Z,3.40
2022-10-24T11:48:04.175Z,2.50
2022-10-24T11:49:05.174Z,2.40
2022-10-24T11:50:04.175Z,2.30
2022-10-24T11:51:04.148Z,2.90
2022-10-24T11:52:04.138Z,2.50
2022-10-24T11:53:04.129Z,3.80
2022-10-24T11:54:04.135Z,3.10
2022-10-24T11:55:04.129Z,2.50
2022-10-24T11:56:04.093Z,1.90
2022-10-24T11:57:04.196Z,2.10
2022-10-24T11:58:04.091Z,2.50
2022-10-24T11:59:04.067Z,1.90
2022-10-24T12:00:04.068Z,1.50
2022-10-24T12:01:04.122Z,1.70
2022-10-24T12:02:04.039Z,2.00
2022-10-24T12:03:04.078Z,2.10
2022-10-24T12:04:04.026Z,2.60
2022-10-24T12:05:04.006Z,1.80
2022-10-24T12:06:04.007Z,1.60
2022-10-24T12:07:03.978Z,2.30
2022-10-24T12:08:03.975Z,2.70
2022-10-24T12:09:03.985Z,3.00
2022-10-24T12:10:03.991Z,2.80
2022-10-24T12:11:03.942Z,2.40
2022-10-24T12:12:03.960Z,2.20
2022-10-24T12:13:03.929Z,2.30
2022-10-24T12:14:03.955Z,1.80
2022-10-24T12:15:03.941Z,2.20
2022-10-24T12:16:03.898Z,3.30
2022-10-24T12:17:03.887Z,2.40
2022-10-24T12:18:03.884Z,1.70
2022-10-24T12:19:03.869Z,2.10
2022-10-24T12:20:03.856Z,1.60
2022-10-24T12:21:03.851Z,1.80
2022-10-24T12:22:03.866Z,2.00
2022-10-24T12:23:03.819Z,2.60
2022-10-24T12:24:03.829Z,3.20
2022-10-24T12:25:03.812Z,4.60
2022-10-24T12:26:03.812Z,2.30
2022-10-24T12:27:03.793Z,1.80
2022-10-24T12:28:03.766Z,2.30
2022-10-24T12:29:03.785Z,1.90
2022-10-24T12:30:03.761Z,2.70
2022-10-24T12:31:03.768Z,2.50
2022-10-24T12:32:03.728Z,2.20
2022-10-24T12:33:03.726Z,2.30
2022-10-24T12:34:03.726Z,1.70
2022-10-24T12:35:29.996Z,1.70
2022-10-24T12:36:05.736Z,2.00
2022-10-24T12:37:03.695Z,1.90
2022-10-24T12:38:03.702Z,2.10
2022-10-24T12:39:03.675Z,2.30
2022-10-24T12:40:03.662Z,3.00
2022-10-24T12:41:03.651Z,2.90
2022-10-24T12:42:03.655Z,3.10
2022-10-24T12:43:03.670Z,2.00
2022-10-24T12:44:03.616Z,3.10
2022-10-24T12:45:03.613Z,2.10
2022-10-24T12:46:09.539Z,2.60
2022-10-24T12:47:04.592Z,1.80
2022-10-24T12:48:03.620Z,1.90
2022-10-24T12:49:03.569Z,1.70
2022-10-24T12:50:03.576Z,1.70
2022-10-24T12:51:03.558Z,2.10
2022-10-24T12:52:03.597Z,1.60
2022-10-24T12:53:03.557Z,1.70
2022-10-24T12:54:03.525Z,1.80
2022-10-24T12:55:03.520Z,1.60
2022-10-24T12:56:03.496Z,1.60
2022-10-24T12:57:03.493Z,3.00
2022-10-24T12:58:03.562Z,2.40
2022-10-24T12:59:03.497Z,2.50
2022-10-24T13:00:03.466Z,2.40
2022-10-24T13:01:03.527Z,2.20
2022-10-24T13:02:03.856Z,2.70
2022-10-24T13:03:04.470Z,2.10
2022-10-24T13:04:03.405Z,2.10
2022-10-24T13:05:03.438Z,2.30
2022-10-24T13:06:03.410Z,2.00
2022-10-24T13:07:03.391Z,1.60
2022-10-24T13:08:03.408Z,2.20
2022-10-24T13:09:03.379Z,2.40
2022-10-24T13:10:03.363Z,2.10
2022-10-24T13:11:03.390Z,2.30
2022-10-24T13:12:03.349Z,3.80
2022-10-24T13:13:03.402Z,4.20
2022-10-24T13:14:03.330Z,2.30
2022-10-24T13:15:03.317Z,2.60
2022-10-24T13:16:03.346Z,3.00
2022-10-24T13:17:03.294Z,2.10
2022-10-24T13:18:03.288Z,2.30
2022-10-24T13:19:03.265Z,2.60
2022-10-24T13:20:03.274Z,2.80